M I D A S
Marine Information and Data Acquisition System
Tripno 1744 of the Zeeleeuw from 2009-08-03 06:53:44 to 2009-08-03 07:55:47
Back to CruiseResearch ActivitiesStationsMapUnderway DataData graphs

EquipmentUnitsComment
TimeDGPSUTC
LatitudeDGPSDM.mWGS84
LongitudeDGPSDM.mWGS84
HeadingGyrodeg 
SOGDGPSknotsSpeed over ground
COGDGPSdegCourse over ground
DepthEcho soundermeters200 kHz
Missing or incorrect values are displayed as -999
Navigation data collected by the RV Zeeleeuw from 2009-08-03 06:53:03 to 2009-08-03 08:01:03
Time Latitude Longitude Heading SOG COG Depth
2009-08-03 06:53:13 51°15.038 2°51.848 285.3 11.9 281 10.7
2009-08-03 06:53:18 51°15.041 2°51.822 285.2 11.9 280 10.9
2009-08-03 06:53:23 51°15.044 2°51.796 285.1 11.9 281 10.7
2009-08-03 06:53:28 51°15.047 2°51.771 284.9 11.9 280 10.9
2009-08-03 06:53:34 51°15.05 2°51.739 284.7 11.9 281 11
2009-08-03 06:53:38 51°15.053 2°51.719 285 12 281 11
2009-08-03 06:53:43 51°15.056 2°51.693 285.2 12 281 11
2009-08-03 06:53:48 51°15.059 2°51.667 285.5 11.9 281 11.1
2009-08-03 06:53:53 51°15.062 2°51.642 285.3 11.9 281 11.1
2009-08-03 06:53:58 51°15.065 2°51.616 285.3 11.9 281 11.2
2009-08-03 06:54:03 51°15.068 2°51.59 285.1 11.9 280 11.2
2009-08-03 06:54:08 51°15.071 2°51.564 284.9 11.9 281 11.2
2009-08-03 06:54:13 51°15.074 2°51.538 285 11.9 281 11.3
2009-08-03 06:54:18 51°15.078 2°51.512 285.4 11.9 281 11.3
2009-08-03 06:54:23 51°15.081 2°51.487 285.3 11.9 281 11.4
2009-08-03 06:54:28 51°15.084 2°51.461 285.8 11.9 282 11.5
2009-08-03 06:54:33 51°15.088 2°51.436 286.7 11.8 283 11.5
2009-08-03 06:54:38 51°15.092 2°51.41 287.3 11.8 283 11.6
2009-08-03 06:54:43 51°15.095 2°51.385 287.6 11.9 283 11.7
2009-08-03 06:54:48 51°15.099 2°51.359 287.8 11.8 284 11.7
2009-08-03 06:54:53 51°15.103 2°51.334 288.6 11.8 285 11.7
2009-08-03 06:54:59 51°15.108 2°51.303 289.3 11.8 284 11.8
2009-08-03 06:55:03 51°15.112 2°51.283 289.1 11.9 285 11.8
2009-08-03 06:55:08 51°15.116 2°51.258 289.7 11.8 286 11.8
2009-08-03 06:55:13 51°15.12 2°51.233 290.3 11.8 285 11.9
2009-08-03 06:55:18 51°15.125 2°51.208 291 11.8 287 11.8
2009-08-03 06:55:23 51°15.13 2°51.183 291.4 11.9 287 12
2009-08-03 06:55:28 51°15.135 2°51.158 291.9 11.9 288 12.1
2009-08-03 06:55:33 51°15.14 2°51.133 292.3 11.8 288 12
2009-08-03 06:55:38 51°15.145 2°51.108 292.6 11.8 288 12.1
2009-08-03 06:55:43 51°15.15 2°51.083 292.6 11.9 288 12.1
2009-08-03 06:55:48 51°15.155 2°51.058 292.3 11.8 287 12.1
2009-08-03 06:55:53 51°15.16 2°51.033 292.2 11.8 287 12.1
2009-08-03 06:55:58 51°15.165 2°51.008 292.5 11.8 288 12.2
2009-08-03 06:56:03 51°15.169 2°50.983 291.7 11.9 286 12.3
2009-08-03 06:56:08 51°15.174 2°50.958 291.4 11.8 287 12.3
2009-08-03 06:56:13 51°15.179 2°50.933 291.5 11.9 287 12.2
2009-08-03 06:56:18 51°15.184 2°50.907 291.8 11.9 287 12.4
2009-08-03 06:56:23 51°15.189 2°50.882 292 11.9 287 12.5
2009-08-03 06:56:28 51°15.193 2°50.857 292.1 11.9 287 12.4
2009-08-03 06:56:33 51°15.198 2°50.832 292.1 11.9 288 12.4
2009-08-03 06:56:38 51°15.203 2°50.807 292.4 11.9 287 12.3
2009-08-03 06:56:43 51°15.208 2°50.782 292 11.9 287 12.4
2009-08-03 06:56:48 51°15.213 2°50.757 291.8 11.9 287 12.4
2009-08-03 06:56:53 51°15.217 2°50.732 291.7 11.9 286 12.4
2009-08-03 06:56:58 51°15.222 2°50.707 291.6 11.9 287 12.6
2009-08-03 06:57:03 51°15.227 2°50.681 291.7 11.9 286 12.6
2009-08-03 06:57:08 51°15.231 2°50.656 291.5 11.9 287 12.3
2009-08-03 06:57:13 51°15.236 2°50.631 291.5 11.9 287 12.5
2009-08-03 06:57:18 51°15.241 2°50.606 291.6 11.9 287 12.6
2009-08-03 06:57:23 51°15.246 2°50.581 291.7 11.9 287 12.3
2009-08-03 06:57:28 51°15.25 2°50.556 291.4 11.9 286 12.3
2009-08-03 06:57:34 51°15.256 2°50.526 291.5 11.8 287 12.6
2009-08-03 06:57:38 51°15.26 2°50.505 291.6 11.9 287 12.6
2009-08-03 06:57:43 51°15.264 2°50.48 291.5 11.9 286 12.6
2009-08-03 06:57:48 51°15.269 2°50.455 290.7 11.9 285 12.7
2009-08-03 06:57:53 51°15.273 2°50.429 290.3 11.9 286 12.7
2009-08-03 06:57:58 51°15.277 2°50.404 289.8 11.9 285 12.6
2009-08-03 06:58:03 51°15.282 2°50.379 289.9 11.9 285 12.6
2009-08-03 06:58:08 51°15.286 2°50.353 290 11.9 285 12.7
2009-08-03 06:58:13 51°15.29 2°50.328 289.7 11.9 286 12.6
2009-08-03 06:58:18 51°15.295 2°50.303 289.8 11.9 286 12.7
2009-08-03 06:58:23 51°15.3 2°50.278 290.6 11.9 287 12.7
2009-08-03 06:58:28 51°15.304 2°50.252 290.8 11.9 286 12.7
2009-08-03 06:58:34 51°15.309 2°50.222 290.6 11.9 286 12.7
2009-08-03 06:58:38 51°15.313 2°50.202 290.5 11.9 286 12.8
2009-08-03 06:58:43 51°15.318 2°50.177 291.4 11.9 288 12.8
2009-08-03 06:58:48 51°15.323 2°50.152 291.8 11.9 287 12.7
2009-08-03 06:58:53 51°15.328 2°50.127 292.1 11.8 288 12.9
2009-08-03 06:58:58 51°15.333 2°50.102 292.3 11.8 287 12.6
2009-08-03 06:59:03 51°15.338 2°50.077 292.3 11.8 288 12.7
2009-08-03 06:59:07 51°15.342 2°50.057 292.3 11.8 288 12.5
2009-08-03 06:59:13 51°15.348 2°50.027 292.4 11.8 287 12.9
2009-08-03 06:59:18 51°15.353 2°50.002 292.2 11.8 288 12.7
2009-08-03 06:59:23 51°15.358 2°49.977 292.2 11.8 288 12.8
2009-08-03 06:59:27 51°15.362 2°49.957 292.4 11.8 288 12.6
2009-08-03 06:59:33 51°15.368 2°49.927 292.5 11.8 287 12.7
2009-08-03 06:59:38 51°15.372 2°49.902 291.5 11.8 286 12.5
2009-08-03 06:59:43 51°15.377 2°49.878 291 11.8 287 12.7
2009-08-03 06:59:47 51°15.381 2°49.857 291.1 11.8 287 12.9
2009-08-03 06:59:53 51°15.387 2°49.828 291.6 11.8 288 12.9
2009-08-03 06:59:58 51°15.392 2°49.803 292 11.8 288 12.8
2009-08-03 07:00:03 51°15.397 2°49.778 292 11.8 288 12.8
2009-08-03 07:00:08 51°15.402 2°49.753 291.7 11.8 287 12.8
2009-08-03 07:00:14 51°15.408 2°49.723 291.7 11.8 288 12.8
2009-08-03 07:00:18 51°15.411 2°49.703 291.7 11.8 287 12.8
2009-08-03 07:00:23 51°15.416 2°49.678 291.5 11.8 287 12.9
2009-08-03 07:00:28 51°15.421 2°49.653 291.5 11.8 287 12.9
2009-08-03 07:00:34 51°15.427 2°49.624 291.5 11.8 287 12.9
2009-08-03 07:00:38 51°15.431 2°49.604 291.7 11.8 287 12.9
2009-08-03 07:00:43 51°15.435 2°49.579 291.5 11.8 287 12.9
2009-08-03 07:00:48 51°15.44 2°49.554 291.3 11.8 287 12.9
2009-08-03 07:00:54 51°15.446 2°49.524 291.8 11.8 287 13
2009-08-03 07:00:58 51°15.45 2°49.504 291.9 11.8 287 13
2009-08-03 07:01:03 51°15.455 2°49.479 291.9 11.8 287 13
2009-08-03 07:01:08 51°15.46 2°49.455 291.8 11.7 287 13
2009-08-03 07:01:13 51°15.465 2°49.43 291.7 11.8 287 12.9
2009-08-03 07:01:18 51°15.469 2°49.405 291.7 11.7 287 12.9
2009-08-03 07:01:23 51°15.474 2°49.38 291.4 11.7 287 13
2009-08-03 07:01:28 51°15.479 2°49.356 291.9 11.7 287 12.9
2009-08-03 07:01:34 51°15.485 2°49.326 291.9 11.7 288 12.9
2009-08-03 07:01:39 51°15.49 2°49.301 291.8 11.7 288 12.8
2009-08-03 07:01:43 51°15.494 2°49.281 291.8 11.7 288 12.8
2009-08-03 07:01:48 51°15.499 2°49.257 291.7 11.8 287 12.6
2009-08-03 07:01:53 51°15.504 2°49.232 291.4 11.8 287 12.7
2009-08-03 07:01:58 51°15.509 2°49.207 291.4 11.7 288 12.6
2009-08-03 07:02:03 51°15.513 2°49.182 291.5 11.7 288 12.4
2009-08-03 07:02:08 51°15.518 2°49.158 291.8 11.7 287 12.4
2009-08-03 07:02:13 51°15.523 2°49.133 291.5 11.7 287 12.2
2009-08-03 07:02:18 51°15.528 2°49.109 291.2 11.6 287 11.9
2009-08-03 07:02:23 51°15.532 2°49.084 291.2 11.6 286 11.7
2009-08-03 07:02:28 51°15.537 2°49.059 291.1 11.7 287 11.6
2009-08-03 07:02:33 51°15.541 2°49.034 291.1 11.7 287 11.4
2009-08-03 07:02:38 51°15.546 2°49.01 291.1 11.6 287 11.3
2009-08-03 07:02:43 51°15.551 2°48.985 291.3 11.6 287 11.1
2009-08-03 07:02:49 51°15.557 2°48.956 291.3 11.6 287 10.8
2009-08-03 07:02:53 51°15.56 2°48.936 291.5 11.6 287 10.8
2009-08-03 07:02:58 51°15.565 2°48.912 291.8 11.6 288 10.6
2009-08-03 07:03:03 51°15.57 2°48.887 291.8 11.6 287 10.6
2009-08-03 07:03:08 51°15.574 2°48.863 291.4 11.6 286 10.6
2009-08-03 07:03:13 51°15.579 2°48.838 291.1 11.6 287 10.5
2009-08-03 07:03:18 51°15.584 2°48.813 291.4 11.6 287 10.4
2009-08-03 07:03:23 51°15.588 2°48.789 291.8 11.6 287 10.4
2009-08-03 07:03:28 51°15.593 2°48.765 291.8 11.6 287 10.4
2009-08-03 07:03:33 51°15.597 2°48.74 291.3 11.6 287 10.4
2009-08-03 07:03:38 51°15.602 2°48.715 291.3 11.6 287 10.4
2009-08-03 07:03:43 51°15.607 2°48.691 291.3 11.6 287 10.4
2009-08-03 07:03:48 51°15.611 2°48.666 291.2 11.6 287 10.4
2009-08-03 07:03:53 51°15.616 2°48.642 291.5 11.7 287 10.5
2009-08-03 07:03:58 51°15.621 2°48.617 291.5 11.7 287 10.5
2009-08-03 07:04:03 51°15.625 2°48.592 291.5 11.6 287 10.4
2009-08-03 07:04:07 51°15.629 2°48.573 291.6 11.6 287 10.5
2009-08-03 07:04:13 51°15.635 2°48.543 291.4 11.7 287 10.7
2009-08-03 07:04:18 51°15.639 2°48.519 291.6 11.6 287 10.6
2009-08-03 07:04:23 51°15.644 2°48.494 291.6 11.6 287 10.7
2009-08-03 07:04:27 51°15.648 2°48.474 291.7 11.6 287 10.5
2009-08-03 07:04:33 51°15.653 2°48.445 291.4 11.7 286 10.7
2009-08-03 07:04:38 51°15.658 2°48.42 291.3 11.6 286 10.8
2009-08-03 07:04:43 51°15.663 2°48.395 291.2 11.7 287 10.9
2009-08-03 07:04:48 51°15.667 2°48.371 291.6 11.7 287 11.1
2009-08-03 07:04:54 51°15.673 2°48.341 291.5 11.7 286 11.2
2009-08-03 07:04:58 51°15.676 2°48.321 290.9 11.7 286 11.3
2009-08-03 07:05:03 51°15.681 2°48.296 290.7 11.7 286 11.4
2009-08-03 07:05:08 51°15.686 2°48.272 291.5 11.7 287 11.4
2009-08-03 07:05:14 51°15.691 2°48.242 291.3 11.7 286 11.6
2009-08-03 07:05:18 51°15.695 2°48.222 291.3 11.7 287 11.6
2009-08-03 07:05:23 51°15.699 2°48.197 291.6 11.7 286 11.8
2009-08-03 07:05:28 51°15.704 2°48.173 291.5 11.8 287 11.9
2009-08-03 07:05:34 51°15.71 2°48.143 291.2 11.7 287 12.1
2009-08-03 07:05:38 51°15.714 2°48.123 291.5 11.7 287 12.2
2009-08-03 07:05:43 51°15.718 2°48.098 291.5 11.8 287 12.4
2009-08-03 07:05:48 51°15.723 2°48.073 291.5 11.8 287 12.5
2009-08-03 07:05:53 51°15.728 2°48.048 291.6 11.8 287 12.7
2009-08-03 07:05:58 51°15.733 2°48.023 291.9 11.8 287 12.8
2009-08-03 07:06:03 51°15.737 2°47.998 291.8 11.8 287 13
2009-08-03 07:06:08 51°15.742 2°47.973 291.3 11.8 287 13.2
2009-08-03 07:06:13 51°15.746 2°47.948 291.3 11.8 286 13.3
2009-08-03 07:06:18 51°15.751 2°47.923 291.1 11.8 286 13.4
2009-08-03 07:06:23 51°15.756 2°47.898 290.9 11.9 286 13.6
2009-08-03 07:06:28 51°15.76 2°47.873 291.1 11.8 287 13.7
2009-08-03 07:06:34 51°15.766 2°47.843 291.1 11.8 286 13.9
2009-08-03 07:06:38 51°15.769 2°47.823 291.1 11.8 286 14
2009-08-03 07:06:43 51°15.774 2°47.798 290.7 11.8 286 14.3
2009-08-03 07:06:48 51°15.778 2°47.773 290.3 11.8 286 14.4
2009-08-03 07:06:53 51°15.783 2°47.748 290.7 11.8 287 14.4
2009-08-03 07:06:58 51°15.788 2°47.723 291.1 11.8 286 14.5
2009-08-03 07:07:03 51°15.793 2°47.698 291.1 11.8 287 14.6
2009-08-03 07:07:08 51°15.798 2°47.673 291.4 11.7 287 14.7
2009-08-03 07:07:13 51°15.802 2°47.648 291.8 11.8 287 14.9
2009-08-03 07:07:18 51°15.807 2°47.623 291.8 11.8 287 15
2009-08-03 07:07:23 51°15.812 2°47.598 291.6 11.8 287 15.1
2009-08-03 07:07:28 51°15.816 2°47.573 290.7 11.7 286 15.3
2009-08-03 07:07:34 51°15.822 2°47.543 290.5 11.8 287 15.3
2009-08-03 07:07:38 51°15.826 2°47.523 291 11.8 287 15.4
2009-08-03 07:07:43 51°15.831 2°47.498 291 11.8 286 15.3
2009-08-03 07:07:48 51°15.835 2°47.473 290.2 11.8 286 15.5
2009-08-03 07:07:54 51°15.84 2°47.443 290.1 11.8 286 15.8
2009-08-03 07:07:58 51°15.844 2°47.422 290 11.8 285 15.9
2009-08-03 07:08:03 51°15.848 2°47.397 289.7 11.8 286 15.8
2009-08-03 07:08:08 51°15.852 2°47.372 289.6 11.8 285 15.9
2009-08-03 07:08:13 51°15.857 2°47.347 289.8 11.8 286 15.8
2009-08-03 07:08:19 51°15.863 2°47.317 290.8 11.8 287 16.1
2009-08-03 07:08:23 51°15.867 2°47.297 291.1 11.8 287 16.1
2009-08-03 07:08:28 51°15.871 2°47.272 291.2 11.8 287 16.1
2009-08-03 07:08:33 51°15.876 2°47.247 291.5 11.8 288 16
2009-08-03 07:08:38 51°15.881 2°47.222 291.7 11.8 287 16.2
2009-08-03 07:08:43 51°15.886 2°47.197 291.4 11.8 287 16.4
2009-08-03 07:08:48 51°15.891 2°47.173 291.6 11.8 288 16.5
2009-08-03 07:08:53 51°15.895 2°47.148 291.5 11.8 287 16.6
2009-08-03 07:08:58 51°15.9 2°47.123 290.8 11.8 286 16.5
2009-08-03 07:09:03 51°15.905 2°47.098 290.4 11.8 286 16.6
2009-08-03 07:09:07 51°15.908 2°47.078 290.3 11.8 287 16.5
2009-08-03 07:09:13 51°15.914 2°47.048 290.4 11.7 287 16.5
2009-08-03 07:09:18 51°15.919 2°47.023 291.1 11.8 287 16.6
2009-08-03 07:09:23 51°15.923 2°46.998 291.1 11.8 287 16.6
2009-08-03 07:09:27 51°15.927 2°46.979 291.1 11.7 287 16.6
2009-08-03 07:09:33 51°15.933 2°46.949 291.1 11.8 286 16.6
2009-08-03 07:09:38 51°15.937 2°46.924 290.4 11.7 287 16.4
2009-08-03 07:09:43 51°15.942 2°46.899 290.5 11.7 287 16.4
2009-08-03 07:09:48 51°15.947 2°46.875 291.2 11.7 287 16.3
2009-08-03 07:09:54 51°15.953 2°46.845 291.5 11.7 288 16.4
2009-08-03 07:09:58 51°15.957 2°46.825 291.1 11.7 286 16.2
2009-08-03 07:10:03 51°15.961 2°46.8 290.4 11.7 287 16
2009-08-03 07:10:08 51°15.966 2°46.775 290.4 11.7 286 16
2009-08-03 07:10:13 51°15.97 2°46.751 290.5 11.7 287 16.1
2009-08-03 07:10:18 51°15.975 2°46.726 291.1 11.7 287 15.8
2009-08-03 07:10:23 51°15.98 2°46.701 291.4 11.7 288 15.7
2009-08-03 07:10:28 51°15.985 2°46.677 291.8 11.7 288 15.5
2009-08-03 07:10:33 51°15.99 2°46.652 291.9 11.7 288 15.4
2009-08-03 07:10:38 51°15.995 2°46.627 292.1 11.7 288 15.2
2009-08-03 07:10:43 51°16 2°46.603 291.9 11.7 287 15
2009-08-03 07:10:48 51°16.005 2°46.578 291.8 11.7 287 14.8
2009-08-03 07:10:53 51°16.01 2°46.554 291.7 11.7 287 14.7
2009-08-03 07:10:58 51°16.014 2°46.529 291.1 11.6 286 14.3
2009-08-03 07:11:03 51°16.019 2°46.504 290.5 11.6 286 13.3
2009-08-03 07:11:08 51°16.024 2°46.479 290.5 11.6 287 13
2009-08-03 07:11:13 51°16.029 2°46.455 291.1 11.6 287 12.8
2009-08-03 07:11:18 51°16.033 2°46.43 291.8 11.6 287 12.9
2009-08-03 07:11:23 51°16.038 2°46.406 291.8 11.6 287 13.2
2009-08-03 07:11:28 51°16.043 2°46.381 291.8 11.6 287 13.4
2009-08-03 07:11:34 51°16.048 2°46.352 291.1 11.6 286 13.3
2009-08-03 07:11:38 51°16.052 2°46.332 290.9 11.6 287 13.2
2009-08-03 07:11:43 51°16.056 2°46.308 290.4 11.6 286 13
2009-08-03 07:11:48 51°16.061 2°46.283 290.2 11.6 286 13
2009-08-03 07:11:53 51°16.066 2°46.259 291.2 11.5 289 13
2009-08-03 07:11:58 51°16.071 2°46.235 293.2 11.5 290 12.8
2009-08-03 07:12:03 51°16.077 2°46.211 294.2 11.5 291 12.7
2009-08-03 07:12:08 51°16.083 2°46.188 295.5 11.4 292 12.6
2009-08-03 07:12:13 51°16.089 2°46.165 296.3 11.4 293 11.7
2009-08-03 07:12:18 51°16.095 2°46.142 297.4 11.4 294 11.6
2009-08-03 07:12:23 51°16.101 2°46.119 298 11.4 294 11.5
2009-08-03 07:12:28 51°16.108 2°46.096 298.7 11.3 295 11.5
2009-08-03 07:12:33 51°16.115 2°46.073 299.3 11.3 295 11.5
2009-08-03 07:12:38 51°16.122 2°46.05 299.8 11.4 296 11.4
2009-08-03 07:12:43 51°16.128 2°46.028 300.2 11.4 296 11.2
2009-08-03 07:12:48 51°16.135 2°46.005 300.3 11.4 296 11
2009-08-03 07:12:53 51°16.142 2°45.982 300.5 11.3 296 11
2009-08-03 07:12:59 51°16.15 2°45.955 300.3 11.4 296 10.8
2009-08-03 07:13:03 51°16.156 2°45.937 300.1 11.4 296 10.9
2009-08-03 07:13:08 51°16.163 2°45.915 300.5 11.4 296 10.8
2009-08-03 07:13:13 51°16.17 2°45.892 300.8 11.3 297 10.8
2009-08-03 07:13:18 51°16.177 2°45.87 301.8 11.4 297 10.8
2009-08-03 07:13:23 51°16.184 2°45.848 302 11.4 298 10.6
2009-08-03 07:13:28 51°16.192 2°45.825 302.2 11.3 297 10.5
2009-08-03 07:13:33 51°16.199 2°45.803 302.3 11.3 298 10.6
2009-08-03 07:13:38 51°16.206 2°45.781 302.3 11.4 297 10.6
2009-08-03 07:13:43 51°16.213 2°45.759 302.1 11.4 298 10.7
2009-08-03 07:13:48 51°16.221 2°45.736 302.1 11.4 297 10.7
2009-08-03 07:13:53 51°16.228 2°45.714 301.9 11.4 297 10.6
2009-08-03 07:13:58 51°16.235 2°45.691 302 11.4 297 10.5
2009-08-03 07:14:03 51°16.242 2°45.669 301.9 11.4 297 10.5
2009-08-03 07:14:07 51°16.248 2°45.651 301.9 11.3 297 10.5
2009-08-03 07:14:13 51°16.256 2°45.624 302 11.4 297 10.5
2009-08-03 07:14:18 51°16.263 2°45.602 301.9 11.3 297 10.5
2009-08-03 07:14:23 51°16.27 2°45.579 301.9 11.3 297 10.3
2009-08-03 07:14:27 51°16.276 2°45.561 301.8 11.3 297 10.4
2009-08-03 07:14:33 51°16.284 2°45.535 302 11.3 296 10.4
2009-08-03 07:14:38 51°16.291 2°45.512 301.8 11.3 296 10.4
2009-08-03 07:14:43 51°16.298 2°45.49 301.3 11.3 296 10.6
2009-08-03 07:14:47 51°16.303 2°45.471 301.2 11.4 295 10.6
2009-08-03 07:14:53 51°16.311 2°45.444 301.3 11.3 296 10.9
2009-08-03 07:14:58 51°16.318 2°45.422 301.3 11.3 295 10.9
2009-08-03 07:15:03 51°16.325 2°45.399 301.3 11.4 296 11
2009-08-03 07:15:08 51°16.331 2°45.376 301.4 11.4 295 10.9
2009-08-03 07:15:13 51°16.338 2°45.353 301.3 11.4 295 10.9
2009-08-03 07:15:18 51°16.345 2°45.331 301 11.3 295 10.8
2009-08-03 07:15:23 51°16.351 2°45.308 301 11.4 295 10.9
2009-08-03 07:15:28 51°16.358 2°45.285 301 11.4 294 10.9
2009-08-03 07:15:33 51°16.364 2°45.262 300.1 11.4 294 11.1
2009-08-03 07:15:38 51°16.371 2°45.239 299.9 11.3 294 11
2009-08-03 07:15:43 51°16.377 2°45.216 299.8 11.3 294 11.3
2009-08-03 07:15:48 51°16.383 2°45.193 299.6 11.3 293 11.1
2009-08-03 07:15:53 51°16.389 2°45.17 299.2 11.3 293 11.2
2009-08-03 07:15:58 51°16.395 2°45.147 299.5 11.4 294 11.4
2009-08-03 07:16:03 51°16.402 2°45.125 300.2 11.4 295 11.2
2009-08-03 07:16:08 51°16.408 2°45.102 300.5 11.3 294 11.3
2009-08-03 07:16:14 51°16.416 2°45.074 300.3 11.4 294 11.3
2009-08-03 07:16:18 51°16.421 2°45.056 299.8 11.4 294 11.4
2009-08-03 07:16:23 51°16.427 2°45.033 300.2 11.4 295 11.3
2009-08-03 07:16:28 51°16.434 2°45.01 300.6 11.4 295 11.3
2009-08-03 07:16:34 51°16.442 2°44.983 301.2 11.3 295 11.1
2009-08-03 07:16:38 51°16.447 2°44.965 301.1 11.3 295 11.1
2009-08-03 07:16:43 51°16.454 2°44.942 301.1 11.3 295 10.9
2009-08-03 07:16:48 51°16.461 2°44.919 301.3 11.3 295 10.9
2009-08-03 07:16:54 51°16.469 2°44.892 301.4 11.3 295 10.5
2009-08-03 07:16:58 51°16.474 2°44.874 301.2 11.4 295 10.3
2009-08-03 07:17:03 51°16.481 2°44.851 301.2 11.4 295 10.4
2009-08-03 07:17:08 51°16.487 2°44.828 301.2 11.4 295 10.1
2009-08-03 07:17:13 51°16.494 2°44.805 300.6 11.4 294 10.5
2009-08-03 07:17:19 51°16.502 2°44.778 300.8 11.4 295 10.8
2009-08-03 07:17:23 51°16.507 2°44.759 301.2 11.4 295 10.7
2009-08-03 07:17:28 51°16.514 2°44.736 301 11.5 295 10.9
2009-08-03 07:17:33 51°16.521 2°44.713 300.9 11.5 295 11.3
2009-08-03 07:17:38 51°16.527 2°44.69 300.7 11.4 295 11.3
2009-08-03 07:17:43 51°16.534 2°44.667 300.4 11.5 294 11.6
2009-08-03 07:17:48 51°16.54 2°44.644 300.5 11.5 295 11.4
2009-08-03 07:17:53 51°16.547 2°44.621 300.7 11.5 294 11.7
2009-08-03 07:17:58 51°16.554 2°44.598 300.6 11.5 295 11.8
2009-08-03 07:18:03 51°16.56 2°44.574 300.6 11.5 294 11.8
2009-08-03 07:18:08 51°16.567 2°44.551 300.3 11.4 294 12.1
2009-08-03 07:18:13 51°16.573 2°44.528 300.6 11.4 295 12.3
2009-08-03 07:18:18 51°16.58 2°44.505 300.8 11.5 295 12.6
2009-08-03 07:18:23 51°16.587 2°44.482 301.1 11.5 295 12.7
2009-08-03 07:18:28 51°16.593 2°44.459 300.9 11.4 295 12.9
2009-08-03 07:18:34 51°16.601 2°44.432 300.9 11.5 295 13.2
2009-08-03 07:18:38 51°16.606 2°44.413 300.8 11.5 294 13.4
2009-08-03 07:18:43 51°16.613 2°44.39 300.6 11.5 294 13.6
2009-08-03 07:18:48 51°16.619 2°44.367 300.8 11.5 294 13.8
2009-08-03 07:18:53 51°16.626 2°44.344 301 11.5 294 14
2009-08-03 07:18:58 51°16.632 2°44.32 300.6 11.5 294 14.2
2009-08-03 07:19:03 51°16.639 2°44.297 300.6 11.5 294 14.2
2009-08-03 07:19:08 51°16.645 2°44.274 300.5 11.6 294 14.3
2009-08-03 07:19:13 51°16.651 2°44.25 300.1 11.5 293 14.5
2009-08-03 07:19:18 51°16.658 2°44.227 300.7 11.5 295 14.6
2009-08-03 07:19:23 51°16.665 2°44.204 301.1 11.5 294 14.5
2009-08-03 07:19:27 51°16.67 2°44.185 301.3 11.5 294 14.5
2009-08-03 07:19:33 51°16.678 2°44.157 300.9 11.5 293 14.5
2009-08-03 07:19:38 51°16.684 2°44.134 300.6 11.5 294 14.7
2009-08-03 07:19:43 51°16.69 2°44.111 300.9 11.5 293 14.8
2009-08-03 07:19:47 51°16.696 2°44.092 300.8 11.5 294 14.7
2009-08-03 07:19:53 51°16.703 2°44.064 300.5 11.5 294 14.8
2009-08-03 07:19:58 51°16.71 2°44.041 300.8 11.6 294 15.1
2009-08-03 07:20:03 51°16.716 2°44.017 301 11.6 294 15
2009-08-03 07:20:08 51°16.723 2°43.994 300.6 11.5 294 14.9
2009-08-03 07:20:14 51°16.731 2°43.966 300.8 11.6 294 15
2009-08-03 07:20:18 51°16.736 2°43.947 300.6 11.5 293 15
2009-08-03 07:20:23 51°16.742 2°43.924 300.3 11.5 294 14.9
2009-08-03 07:20:28 51°16.748 2°43.901 300.5 11.5 293 14.8
2009-08-03 07:20:34 51°16.756 2°43.873 300.7 11.5 294 14.8
2009-08-03 07:20:38 51°16.761 2°43.854 300.6 11.5 293 14.5
2009-08-03 07:20:43 51°16.767 2°43.83 300.4 11.5 293 14.6
2009-08-03 07:20:48 51°16.774 2°43.807 300.4 11.6 293 14.8
2009-08-03 07:20:54 51°16.781 2°43.779 299.8 11.5 292 14.8
2009-08-03 07:20:58 51°16.786 2°43.76 299.1 11.6 292 14.7
2009-08-03 07:21:03 51°16.792 2°43.736 299 11.6 292 14.7
2009-08-03 07:21:08 51°16.797 2°43.712 298.6 11.5 292 14.9
2009-08-03 07:21:14 51°16.805 2°43.684 298.4 11.5 292 14.7
2009-08-03 07:21:18 51°16.81 2°43.665 298.9 11.5 293 14.3
2009-08-03 07:21:23 51°16.817 2°43.642 300.6 11.5 295 14.1
2009-08-03 07:21:28 51°16.823 2°43.619 301.4 11.4 295 13.9
2009-08-03 07:21:34 51°16.831 2°43.592 302.1 11.4 295 13.8
2009-08-03 07:21:39 51°16.838 2°43.569 303 11.4 296 13.7
2009-08-03 07:21:43 51°16.844 2°43.551 303.7 11.4 297 13.6
2009-08-03 07:21:48 51°16.851 2°43.528 303.8 11.5 297 13.7
2009-08-03 07:21:53 51°16.859 2°43.506 303.9 11.5 298 13.5
2009-08-03 07:21:59 51°16.867 2°43.479 304.7 11.5 297 13.5
2009-08-03 07:22:03 51°16.873 2°43.461 304.9 11.4 298 13.6
2009-08-03 07:22:08 51°16.881 2°43.438 305.3 11.5 298 13.5
2009-08-03 07:22:13 51°16.889 2°43.416 305.8 11.5 300 13.5
2009-08-03 07:22:18 51°16.896 2°43.394 306.4 11.5 298 13.5
2009-08-03 07:22:23 51°16.904 2°43.372 306.4 11.5 300 13.9
2009-08-03 07:22:28 51°16.912 2°43.35 306.7 11.5 299 13.9
2009-08-03 07:22:33 51°16.92 2°43.328 306.5 11.5 300 13.9
2009-08-03 07:22:38 51°16.928 2°43.306 306.5 11.5 299 14
2009-08-03 07:22:43 51°16.936 2°43.284 306.4 11.5 299 13.5
2009-08-03 07:22:48 51°16.944 2°43.262 306.3 11.5 299 13.6
2009-08-03 07:22:53 51°16.952 2°43.239 306.2 11.5 299 13.4
2009-08-03 07:22:58 51°16.959 2°43.217 306 11.5 300 13.4
2009-08-03 07:23:03 51°16.967 2°43.195 306.4 11.5 300 13.3
2009-08-03 07:23:08 51°16.975 2°43.173 306.5 11.5 300 12.6
2009-08-03 07:23:14 51°16.984 2°43.146 306.4 11.5 299 12.5
2009-08-03 07:23:18 51°16.991 2°43.128 306.2 11.5 299 12.2
2009-08-03 07:23:23 51°16.999 2°43.106 306.2 11.5 299 13.1
2009-08-03 07:23:28 51°17.007 2°43.084 306 11.6 299 13.4
2009-08-03 07:23:34 51°17.017 2°43.057 306.1 11.6 300 12.4
2009-08-03 07:23:38 51°17.023 2°43.039 306.4 11.6 300 12.8
2009-08-03 07:23:43 51°17.031 2°43.017 306.3 11.6 300 13.1
2009-08-03 07:23:48 51°17.039 2°42.995 306.4 11.6 300 13
2009-08-03 07:23:54 51°17.049 2°42.969 306.4 11.6 300 12.5
2009-08-03 07:23:58 51°17.055 2°42.951 306.1 11.6 300 11.7
2009-08-03 07:24:03 51°17.063 2°42.929 305.9 11.5 301 11.4
2009-08-03 07:24:08 51°17.071 2°42.906 306.1 11.5 300 10.6
2009-08-03 07:24:13 51°17.079 2°42.885 305.7 11.5 300 10.7
2009-08-03 07:24:18 51°17.087 2°42.863 305.3 11.4 300 10.2
2009-08-03 07:24:23 51°17.095 2°42.84 305.5 11.5 300 10.2
2009-08-03 07:24:28 51°17.103 2°42.819 305.7 11.5 300 9.6
2009-08-03 07:24:33 51°17.111 2°42.797 305.8 11.5 301 8.5
2009-08-03 07:24:38 51°17.119 2°42.775 306.3 11.5 301 8.8
2009-08-03 07:24:43 51°17.127 2°42.753 306.3 11.4 300 10.2
2009-08-03 07:24:47 51°17.133 2°42.735 306.1 11.5 299 10.7
2009-08-03 07:24:53 51°17.143 2°42.709 305.4 11.6 299 10.5
2009-08-03 07:24:58 51°17.151 2°42.686 304.7 11.7 300 9.9
2009-08-03 07:25:03 51°17.159 2°42.663 304.6 11.6 300 9.4
2009-08-03 07:25:07 51°17.165 2°42.646 305.1 11.5 300 10.5
2009-08-03 07:25:13 51°17.175 2°42.619 305.1 11.6 300 10.7
2009-08-03 07:25:18 51°17.183 2°42.597 305.1 11.6 300 10.3
2009-08-03 07:25:23 51°17.191 2°42.575 304.9 11.7 299 9.6
2009-08-03 07:25:27 51°17.197 2°42.557 304.4 11.6 300 11
2009-08-03 07:25:33 51°17.207 2°42.53 304.4 11.6 299 11.6
2009-08-03 07:25:38 51°17.215 2°42.508 304.3 11.6 300 12
2009-08-03 07:25:43 51°17.223 2°42.485 304.4 11.7 299 12.7
2009-08-03 07:25:48 51°17.231 2°42.462 303.8 11.7 299 13.6
2009-08-03 07:25:54 51°17.24 2°42.435 303.7 11.7 299 14.7
2009-08-03 07:25:58 51°17.247 2°42.417 303.6 11.7 299 16.5
2009-08-03 07:26:03 51°17.254 2°42.395 304 11.7 299 18.2
2009-08-03 07:26:08 51°17.262 2°42.372 304.1 11.7 299 19.4
2009-08-03 07:26:14 51°17.272 2°42.346 303.8 11.7 299 20
2009-08-03 07:26:18 51°17.279 2°42.328 303.6 11.7 300 20.6
2009-08-03 07:26:23 51°17.287 2°42.305 304.4 11.7 299 20.7
2009-08-03 07:26:28 51°17.295 2°42.283 304.2 11.6 300 21.1
2009-08-03 07:26:34 51°17.304 2°42.256 304.2 11.7 299 21.5
2009-08-03 07:26:38 51°17.31 2°42.238 304.6 11.6 300 21.8
2009-08-03 07:26:43 51°17.318 2°42.215 304.7 11.7 299 21.9
2009-08-03 07:26:48 51°17.326 2°42.192 304.5 11.6 300 22.4
2009-08-03 07:26:53 51°17.334 2°42.17 304.9 11.6 300 22.6
2009-08-03 07:26:58 51°17.342 2°42.148 305.6 11.7 300 22.7
2009-08-03 07:27:03 51°17.35 2°42.126 305.3 11.6 300 22.9
2009-08-03 07:27:08 51°17.358 2°42.103 305.4 11.6 300 23.2
2009-08-03 07:27:13 51°17.366 2°42.081 305.9 11.6 300 23.3
2009-08-03 07:27:18 51°17.374 2°42.059 305.6 11.6 299 23.3
2009-08-03 07:27:23 51°17.382 2°42.036 303.6 11.6 296 23.4
2009-08-03 07:27:28 51°17.389 2°42.013 302.7 11.6 297 23.5
2009-08-03 07:27:34 51°17.397 2°41.985 301.9 11.6 294 23.6
2009-08-03 07:27:38 51°17.403 2°41.967 301 11.6 296 23.8
2009-08-03 07:27:43 51°17.409 2°41.943 300.5 11.7 294 23.8
2009-08-03 07:27:48 51°17.416 2°41.919 299.5 11.6 295 23.9
2009-08-03 07:27:54 51°17.423 2°41.891 299.1 11.7 292 24.3
2009-08-03 07:27:58 51°17.428 2°41.872 298.7 11.7 292 24.3
2009-08-03 07:28:03 51°17.434 2°41.848 298.4 11.7 292 24.3
2009-08-03 07:28:08 51°17.44 2°41.824 298.3 11.7 292 24.2
2009-08-03 07:28:14 51°17.448 2°41.795 298.3 11.7 292 24.1
2009-08-03 07:28:18 51°17.452 2°41.775 297.2 11.7 289 24.3
2009-08-03 07:28:23 51°17.458 2°41.751 297.3 11.7 292 24.2
2009-08-03 07:28:28 51°17.463 2°41.726 295.6 11.8 287 24.2
2009-08-03 07:28:33 51°17.468 2°41.702 294.4 11.7 289 24.1
2009-08-03 07:28:38 51°17.472 2°41.677 293.6 11.8 286 24
2009-08-03 07:28:43 51°17.477 2°41.652 292.7 11.7 287 24.1
2009-08-03 07:28:48 51°17.481 2°41.627 292 11.8 284 24.1
2009-08-03 07:28:53 51°17.485 2°41.602 291.2 11.7 285 23.9
2009-08-03 07:28:58 51°17.489 2°41.577 290.9 11.8 283 24.1
2009-08-03 07:29:03 51°17.493 2°41.551 290.1 11.8 283 24.1
2009-08-03 07:29:08 51°17.497 2°41.526 289.4 11.8 284 23.9
2009-08-03 07:29:13 51°17.5 2°41.5 289.1 11.8 282 23.9
2009-08-03 07:29:18 51°17.504 2°41.475 288.8 11.8 283 23.7
2009-08-03 07:29:23 51°17.508 2°41.45 289.4 11.8 283 23.8
2009-08-03 07:29:28 51°17.512 2°41.424 289.4 11.8 283 23.6
2009-08-03 07:29:33 51°17.516 2°41.399 289.7 11.8 283 23.7
2009-08-03 07:29:38 51°17.519 2°41.373 289.5 11.8 283 23.5
2009-08-03 07:29:43 51°17.523 2°41.348 289.5 11.8 284 23.6
2009-08-03 07:29:48 51°17.527 2°41.323 289.8 11.8 284 23.4
2009-08-03 07:29:53 51°17.531 2°41.297 290.3 11.8 284 23.3
2009-08-03 07:29:58 51°17.535 2°41.272 290.3 11.8 283 23.4
2009-08-03 07:30:03 51°17.539 2°41.247 289.7 11.8 284 23.2
2009-08-03 07:30:08 51°17.543 2°41.221 290 11.8 283 23.2
2009-08-03 07:30:13 51°17.547 2°41.196 289.9 11.8 284 23.3
2009-08-03 07:30:18 51°17.551 2°41.171 290.1 11.8 284 23.1
2009-08-03 07:30:23 51°17.555 2°41.145 290.3 11.8 284 22.8
2009-08-03 07:30:27 51°17.558 2°41.125 290.4 11.8 284 22.9
2009-08-03 07:30:33 51°17.562 2°41.094 290.3 11.8 283 22.5
2009-08-03 07:30:38 51°17.566 2°41.069 289.7 11.8 283 22.6
2009-08-03 07:30:43 51°17.569 2°41.044 289.7 11.8 284 22.3
2009-08-03 07:30:47 51°17.573 2°41.024 290 11.8 284 22.3
2009-08-03 07:30:53 51°17.577 2°40.993 289.5 11.8 283 22.2
2009-08-03 07:30:58 51°17.581 2°40.968 289.9 11.8 284 22.3
2009-08-03 07:31:03 51°17.585 2°40.942 290.2 11.8 284 22.1
2009-08-03 07:31:07 51°17.588 2°40.922 290.2 11.8 284 21.9
2009-08-03 07:31:13 51°17.592 2°40.891 289.9 11.8 284 21.7
2009-08-03 07:31:18 51°17.596 2°40.866 290 11.8 284 21.6
2009-08-03 07:31:23 51°17.6 2°40.841 290.1 11.8 284 21.2
2009-08-03 07:31:28 51°17.604 2°40.815 290.1 11.8 284 20.7
2009-08-03 07:31:34 51°17.609 2°40.785 290.1 11.8 284 20.2
2009-08-03 07:31:38 51°17.612 2°40.765 290.1 11.8 284 20.3
2009-08-03 07:31:43 51°17.616 2°40.74 290.1 11.8 284 19.9
2009-08-03 07:31:48 51°17.62 2°40.714 290.4 11.8 284 19.5
2009-08-03 07:31:54 51°17.624 2°40.684 290.4 11.8 284 18.5
2009-08-03 07:31:58 51°17.627 2°40.664 290.3 11.8 284 17.7
2009-08-03 07:32:03 51°17.631 2°40.638 290.4 11.8 284 17.6
2009-08-03 07:32:08 51°17.635 2°40.613 290.1 11.8 283 16.6
2009-08-03 07:32:14 51°17.64 2°40.583 289.7 11.8 284 15
2009-08-03 07:32:18 51°17.643 2°40.562 289.6 11.8 284 16.9
2009-08-03 07:32:23 51°17.647 2°40.537 290.2 11.8 284 17.2
2009-08-03 07:32:28 51°17.651 2°40.512 290.3 11.8 284 15.1
2009-08-03 07:32:34 51°17.655 2°40.482 290.2 11.8 284 16.7
2009-08-03 07:32:38 51°17.658 2°40.461 290 11.8 284 17.2
2009-08-03 07:32:43 51°17.662 2°40.436 290 11.8 284 16.9
2009-08-03 07:32:48 51°17.666 2°40.411 289.9 11.7 284 15.1
2009-08-03 07:32:54 51°17.671 2°40.381 290.3 11.7 285 14.9
2009-08-03 07:32:59 51°17.676 2°40.356 290.3 11.7 285 15
2009-08-03 07:33:03 51°17.679 2°40.335 290.5 11.8 285 14.4
2009-08-03 07:33:08 51°17.683 2°40.31 290.5 11.8 284 15.2
2009-08-03 07:33:13 51°17.687 2°40.285 290.2 11.8 285 15.7
2009-08-03 07:33:19 51°17.692 2°40.255 290.4 11.8 285 15.7
2009-08-03 07:33:23 51°17.696 2°40.235 290.4 11.8 285 14.4
2009-08-03 07:33:28 51°17.7 2°40.21 290.4 11.7 285 12.8
2009-08-03 07:33:33 51°17.704 2°40.185 290.7 11.7 285 14.5
2009-08-03 07:33:38 51°17.709 2°40.16 290.3 11.7 286 15.5
2009-08-03 07:33:43 51°17.713 2°40.135 290.6 11.8 286 15.3
2009-08-03 07:33:48 51°17.718 2°40.11 290.4 11.8 285 13.3
2009-08-03 07:33:53 51°17.722 2°40.085 290.2 11.7 286 15
2009-08-03 07:33:58 51°17.726 2°40.06 290.4 11.7 286 15.7
2009-08-03 07:34:03 51°17.731 2°40.035 290.5 11.8 285 14.4
2009-08-03 07:34:08 51°17.735 2°40.01 290.3 11.8 285 15.2
2009-08-03 07:34:13 51°17.739 2°39.984 290.2 11.8 286 15.9
2009-08-03 07:34:18 51°17.744 2°39.959 290.3 11.8 285 16.6
2009-08-03 07:34:23 51°17.748 2°39.934 290.1 11.8 285 17.1
2009-08-03 07:34:28 51°17.752 2°39.909 290 11.8 286 17.9
2009-08-03 07:34:34 51°17.758 2°39.879 290.5 11.8 286 17
2009-08-03 07:34:38 51°17.761 2°39.859 290.5 11.8 286 16.7
2009-08-03 07:34:43 51°17.766 2°39.834 290.3 11.8 286 17.4
2009-08-03 07:34:48 51°17.77 2°39.809 290.1 11.8 285 18.4
2009-08-03 07:34:53 51°17.775 2°39.784 289.9 11.8 286 18.7
2009-08-03 07:34:58 51°17.779 2°39.758 289.3 11.8 284 18.9
2009-08-03 07:35:03 51°17.783 2°39.733 288.8 11.8 285 18.9
2009-08-03 07:35:07 51°17.786 2°39.713 289 11.8 286 19.2
2009-08-03 07:35:13 51°17.791 2°39.683 289.4 11.7 286 17.9
2009-08-03 07:35:18 51°17.796 2°39.658 289.7 11.7 286 17
2009-08-03 07:35:23 51°17.8 2°39.633 289.8 11.7 286 17.1
2009-08-03 07:35:27 51°17.804 2°39.613 290.1 11.7 287 17
2009-08-03 07:35:33 51°17.809 2°39.584 290.4 11.7 287 17.9
2009-08-03 07:35:38 51°17.814 2°39.559 290.4 11.7 286 19.5
2009-08-03 07:35:43 51°17.819 2°39.534 290.6 11.7 287 20.3
2009-08-03 07:35:47 51°17.822 2°39.514 290.1 11.7 286 21.4
2009-08-03 07:35:53 51°17.828 2°39.484 290.4 11.7 287 22
2009-08-03 07:35:58 51°17.833 2°39.459 290.5 11.7 286 22.5
2009-08-03 07:36:03 51°17.838 2°39.435 290.4 11.7 287 23.6
2009-08-03 07:36:08 51°17.842 2°39.41 290.3 11.7 286 24.3
2009-08-03 07:36:14 51°17.848 2°39.38 290.2 11.7 287 24.9
2009-08-03 07:36:18 51°17.851 2°39.36 290.4 11.7 287 25.7
2009-08-03 07:36:23 51°17.856 2°39.336 290.8 11.7 287 25.9
2009-08-03 07:36:28 51°17.861 2°39.311 290.3 11.7 287 26.1
2009-08-03 07:36:34 51°17.866 2°39.281 290.3 11.7 286 26.1
2009-08-03 07:36:38 51°17.87 2°39.261 290.1 11.7 287 26.5
2009-08-03 07:36:43 51°17.875 2°39.237 290.6 11.7 287 26.5
2009-08-03 07:36:48 51°17.879 2°39.212 290.4 11.7 287 26.8
2009-08-03 07:36:54 51°17.885 2°39.182 290.4 11.7 286 26.9
2009-08-03 07:36:58 51°17.888 2°39.162 289.9 11.7 286 26.9
2009-08-03 07:37:03 51°17.893 2°39.137 289.8 11.7 286 26.8
2009-08-03 07:37:08 51°17.897 2°39.112 290.1 11.7 286 26.9
2009-08-03 07:37:14 51°17.903 2°39.082 290.1 11.7 287 27.1
2009-08-03 07:37:18 51°17.907 2°39.062 290.4 11.7 287 27.1
2009-08-03 07:37:23 51°17.911 2°39.038 290.5 11.7 287 27.1
2009-08-03 07:37:28 51°17.916 2°39.013 290.9 11.7 287 27
2009-08-03 07:37:34 51°17.922 2°38.983 290.6 11.7 287 26.9
2009-08-03 07:37:39 51°17.926 2°38.958 290.6 11.7 287 26.8
2009-08-03 07:37:43 51°17.93 2°38.939 290.5 11.7 286 27
2009-08-03 07:37:48 51°17.935 2°38.914 290.7 11.7 287 27
2009-08-03 07:37:53 51°17.939 2°38.889 291 11.7 286 27
2009-08-03 07:37:59 51°17.944 2°38.859 289.9 11.7 285 27
2009-08-03 07:38:03 51°17.948 2°38.839 289.7 11.7 286 27
2009-08-03 07:38:08 51°17.952 2°38.814 289.7 11.7 285 26.8
2009-08-03 07:38:13 51°17.957 2°38.789 289.8 11.7 285 26.9
2009-08-03 07:38:18 51°17.961 2°38.765 289.8 11.7 286 26.7
2009-08-03 07:38:23 51°17.965 2°38.739 290 11.7 285 26.7
2009-08-03 07:38:28 51°17.97 2°38.715 290.1 11.7 286 26.7
2009-08-03 07:38:33 51°17.974 2°38.69 290.4 11.7 286 26.8
2009-08-03 07:38:38 51°17.979 2°38.665 290.5 11.7 286 26.7
2009-08-03 07:38:43 51°17.983 2°38.64 290.3 11.7 286 26.9
2009-08-03 07:38:48 51°17.988 2°38.615 290.7 11.7 286 26.8
2009-08-03 07:38:53 51°17.992 2°38.591 290.5 11.6 286 26.7
2009-08-03 07:38:58 51°17.997 2°38.566 290.5 11.7 285 26.8
2009-08-03 07:39:03 51°18.001 2°38.541 290.2 11.7 286 27
2009-08-03 07:39:07 51°18.004 2°38.521 289.7 11.7 285 26.8
2009-08-03 07:39:13 51°18.009 2°38.491 290 11.7 286 26.7
2009-08-03 07:39:18 51°18.014 2°38.466 290.3 11.7 285 26.8
2009-08-03 07:39:23 51°18.018 2°38.441 290.3 11.6 286 26.6
2009-08-03 07:39:28 51°18.022 2°38.416 290.4 11.6 285 26.8
2009-08-03 07:39:34 51°18.027 2°38.387 290.1 11.7 285 26.8
2009-08-03 07:39:38 51°18.031 2°38.367 290.2 11.7 285 27
2009-08-03 07:39:43 51°18.035 2°38.342 290.6 11.7 286 26.9
2009-08-03 07:39:48 51°18.039 2°38.316 290 11.7 284 26.8
2009-08-03 07:39:53 51°18.044 2°38.292 289.7 11.7 285 26.9
2009-08-03 07:39:58 51°18.048 2°38.266 289.8 11.7 285 26.7
2009-08-03 07:40:03 51°18.052 2°38.241 290.1 11.7 285 26.6
2009-08-03 07:40:08 51°18.056 2°38.216 290.1 11.7 284 26.7
2009-08-03 07:40:13 51°18.06 2°38.191 289.9 11.7 285 26.2
2009-08-03 07:40:18 51°18.064 2°38.166 290.2 11.7 285 26.5
2009-08-03 07:40:23 51°18.069 2°38.142 290.6 11.7 285 26.6
2009-08-03 07:40:28 51°18.073 2°38.116 290.5 11.7 285 26.4
2009-08-03 07:40:34 51°18.078 2°38.087 290.4 11.7 284 26.5
2009-08-03 07:40:38 51°18.081 2°38.067 290.3 11.7 285 26.6
2009-08-03 07:40:43 51°18.085 2°38.042 290.5 11.7 284 26.6
2009-08-03 07:40:48 51°18.089 2°38.016 290.4 11.7 285 26.4
2009-08-03 07:40:53 51°18.093 2°37.991 290.6 11.7 284 26.4
2009-08-03 07:40:58 51°18.097 2°37.966 290.3 11.7 284 26.4
2009-08-03 07:41:03 51°18.1 2°37.941 289.7 11.7 282 26.2
2009-08-03 07:41:08 51°18.104 2°37.915 288.5 11.8 280 26.1
2009-08-03 07:41:13 51°18.106 2°37.89 286.2 11.8 279 26
2009-08-03 07:41:18 51°18.109 2°37.864 285.4 11.8 279 25.7
2009-08-03 07:41:23 51°18.11 2°37.838 284.4 11.8 277 25.6
2009-08-03 07:41:28 51°18.113 2°37.812 283.4 11.8 277 25.7
2009-08-03 07:41:34 51°18.114 2°37.78 282.8 11.9 275 25.1
2009-08-03 07:41:38 51°18.115 2°37.76 281.2 11.9 275 25.5
2009-08-03 07:41:43 51°18.117 2°37.733 281 11.9 274 25.6
2009-08-03 07:41:48 51°18.118 2°37.707 280.5 11.9 275 24.7
2009-08-03 07:41:53 51°18.12 2°37.681 280.7 11.9 275 24.4
2009-08-03 07:41:59 51°18.122 2°37.649 281.1 11.9 275 24.6
2009-08-03 07:42:03 51°18.123 2°37.629 280.9 11.9 275 24.5
2009-08-03 07:42:08 51°18.124 2°37.602 280.4 11.9 274 24.9
2009-08-03 07:42:13 51°18.126 2°37.576 280.4 11.9 275 24.8
2009-08-03 07:42:18 51°18.127 2°37.55 280.6 11.9 275 24.2
2009-08-03 07:42:23 51°18.129 2°37.524 280.6 11.9 275 24.7
2009-08-03 07:42:28 51°18.13 2°37.498 280.8 11.8 275 24.1
2009-08-03 07:42:34 51°18.132 2°37.466 280.9 11.9 275 24.1
2009-08-03 07:42:38 51°18.133 2°37.445 280.7 11.9 275 24
2009-08-03 07:42:43 51°18.134 2°37.419 280.4 11.9 275 23.7
2009-08-03 07:42:48 51°18.136 2°37.393 280.4 11.8 275 23.4
2009-08-03 07:42:53 51°18.137 2°37.367 280 11.9 273 23.6
2009-08-03 07:42:58 51°18.138 2°37.341 279.2 11.8 274 23.1
2009-08-03 07:43:03 51°18.139 2°37.314 279.1 11.9 273 22.5
2009-08-03 07:43:08 51°18.14 2°37.288 279 11.9 274 22.6
2009-08-03 07:43:13 51°18.141 2°37.262 278.8 11.8 274 21.5
2009-08-03 07:43:18 51°18.142 2°37.236 279.3 11.8 275 21.5
2009-08-03 07:43:23 51°18.144 2°37.21 280.1 11.8 274 22
2009-08-03 07:43:27 51°18.145 2°37.189 279.9 11.9 274 21.6
2009-08-03 07:43:33 51°18.146 2°37.158 279.5 11.9 274 21.2
2009-08-03 07:43:38 51°18.147 2°37.132 279.5 11.8 276 21.3
2009-08-03 07:43:43 51°18.149 2°37.106 280.7 11.8 275 20
2009-08-03 07:43:47 51°18.15 2°37.085 280.1 11.8 275 19.9
2009-08-03 07:43:53 51°18.152 2°37.054 279.9 11.8 274 18.5
2009-08-03 07:43:58 51°18.153 2°37.028 279.7 11.8 274 20.5
2009-08-03 07:44:03 51°18.154 2°37.002 279.5 11.8 274 20.7
2009-08-03 07:44:07 51°18.155 2°36.981 279.4 11.8 274 20.4
2009-08-03 07:44:13 51°18.156 2°36.949 279.4 11.8 275 20
2009-08-03 07:44:18 51°18.158 2°36.923 280 11.8 275 19.2
2009-08-03 07:44:23 51°18.16 2°36.897 280.7 11.8 276 19.5
2009-08-03 07:44:28 51°18.161 2°36.871 281.2 11.8 276 18.9
2009-08-03 07:44:34 51°18.164 2°36.84 281.5 11.8 276 19.3
2009-08-03 07:44:38 51°18.165 2°36.82 281.5 11.8 276 19.3
2009-08-03 07:44:43 51°18.167 2°36.794 281.2 11.8 276 18.6
2009-08-03 07:44:48 51°18.169 2°36.768 281.5 11.8 276 18
2009-08-03 07:44:53 51°18.17 2°36.742 281 11.8 275 16.6
2009-08-03 07:44:58 51°18.172 2°36.716 280.6 11.8 275 18.3
2009-08-03 07:45:03 51°18.174 2°36.69 280.3 11.8 276 17.6
2009-08-03 07:45:08 51°18.175 2°36.664 280.6 11.8 276 17.1
2009-08-03 07:45:14 51°18.177 2°36.633 280.4 11.8 275 16.1
2009-08-03 07:45:18 51°18.178 2°36.612 280.1 11.8 275 15.4
2009-08-03 07:45:23 51°18.18 2°36.586 280.1 11.8 276 16.6
2009-08-03 07:45:28 51°18.181 2°36.56 281 11.7 277 16.2
2009-08-03 07:45:34 51°18.184 2°36.529 281.6 11.7 276 15.4
2009-08-03 07:45:38 51°18.185 2°36.508 281.1 11.8 275 15.1
2009-08-03 07:45:43 51°18.187 2°36.483 280.5 11.7 276 14.2
2009-08-03 07:45:48 51°18.188 2°36.457 280.4 11.7 276 14
2009-08-03 07:45:53 51°18.19 2°36.431 280.5 11.7 276 14
2009-08-03 07:45:58 51°18.192 2°36.405 280.7 11.7 277 14.7
2009-08-03 07:46:03 51°18.194 2°36.379 281.3 11.7 277 15.5
2009-08-03 07:46:08 51°18.196 2°36.354 281.6 11.8 277 15.8
2009-08-03 07:46:14 51°18.198 2°36.322 280.8 11.8 276 16.2
2009-08-03 07:46:19 51°18.2 2°36.297 281 11.7 277 16.1
2009-08-03 07:46:23 51°18.202 2°36.276 281.5 11.8 277 15.5
2009-08-03 07:46:28 51°18.204 2°36.25 281.9 11.7 278 14.1
2009-08-03 07:46:33 51°18.207 2°36.224 282.3 11.7 278 15.9
2009-08-03 07:46:38 51°18.209 2°36.199 282.3 11.8 278 16.8
2009-08-03 07:46:43 51°18.212 2°36.172 282.4 11.8 278 16
2009-08-03 07:46:48 51°18.214 2°36.146 282.3 11.8 278 17.1
2009-08-03 07:46:53 51°18.216 2°36.12 282.2 11.8 278 17.6
2009-08-03 07:46:59 51°18.219 2°36.09 281.9 11.8 277 18.4
2009-08-03 07:47:03 51°18.22 2°36.069 281.7 11.8 278 18.6
2009-08-03 07:47:08 51°18.222 2°36.043 282.2 11.8 277 17.4
2009-08-03 07:47:13 51°18.224 2°36.017 281.7 11.8 278 18.1
2009-08-03 07:47:18 51°18.226 2°35.991 281 11.8 276 19.4
2009-08-03 07:47:23 51°18.228 2°35.965 280.9 11.8 277 20.1
2009-08-03 07:47:28 51°18.23 2°35.939 281 11.8 277 20.9
2009-08-03 07:47:34 51°18.233 2°35.908 281.5 11.8 278 21.1
2009-08-03 07:47:38 51°18.234 2°35.887 281.5 11.8 278 19.2
2009-08-03 07:47:43 51°18.237 2°35.861 281.6 11.8 278 20.9
2009-08-03 07:47:48 51°18.239 2°35.835 281.8 11.8 278 19.9
2009-08-03 07:47:53 51°18.241 2°35.809 281.8 11.9 278 20.9
2009-08-03 07:47:58 51°18.243 2°35.783 281.2 11.9 276 22.8
2009-08-03 07:48:03 51°18.245 2°35.757 281 11.9 277 23.9
2009-08-03 07:48:08 51°18.247 2°35.731 281.1 11.9 278 24.5
2009-08-03 07:48:13 51°18.249 2°35.705 281.6 11.9 278 24.6
2009-08-03 07:48:18 51°18.251 2°35.679 281.3 11.9 277 22.9
2009-08-03 07:48:23 51°18.253 2°35.653 280.8 11.9 277 25.2
2009-08-03 07:48:28 51°18.256 2°35.627 281.7 11.8 278 23.5
2009-08-03 07:48:33 51°18.258 2°35.601 281.4 11.9 277 21.5
2009-08-03 07:48:38 51°18.26 2°35.575 280.8 11.9 277 22
2009-08-03 07:48:43 51°18.262 2°35.549 280.7 11.9 277 23.1
2009-08-03 07:48:47 51°18.264 2°35.528 281.3 11.9 278 24.2
2009-08-03 07:48:53 51°18.266 2°35.497 281.4 11.9 278 25
2009-08-03 07:48:58 51°18.268 2°35.471 281.7 11.9 278 25.6
2009-08-03 07:49:03 51°18.27 2°35.445 281.5 11.9 278 26.8
2009-08-03 07:49:07 51°18.272 2°35.424 281.3 11.8 278 27.4
2009-08-03 07:49:13 51°18.275 2°35.393 281.8 11.9 278 26.9
2009-08-03 07:49:18 51°18.277 2°35.367 281.9 11.9 278 24
2009-08-03 07:49:23 51°18.279 2°35.341 281.9 11.9 278 24.6
2009-08-03 07:49:27 51°18.281 2°35.32 281.5 11.9 277 25.4
2009-08-03 07:49:33 51°18.284 2°35.289 281.4 11.9 278 26.3
2009-08-03 07:49:38 51°18.286 2°35.263 281.8 11.8 278 27.3
2009-08-03 07:49:43 51°18.288 2°35.237 281.9 11.9 278 28.1
2009-08-03 07:49:48 51°18.291 2°35.211 282 11.8 279 27.6
2009-08-03 07:49:54 51°18.293 2°35.181 282.2 11.8 278 25.2
2009-08-03 07:49:58 51°18.295 2°35.16 282 11.8 278 25.9
2009-08-03 07:50:03 51°18.297 2°35.134 281.8 11.8 277 26.9
2009-08-03 07:50:08 51°18.3 2°35.108 281.5 11.9 278 27.4
2009-08-03 07:50:14 51°18.302 2°35.077 281.6 11.9 278 27.5
2009-08-03 07:50:18 51°18.304 2°35.056 281.7 11.9 278 27.7
2009-08-03 07:50:23 51°18.306 2°35.03 282 11.9 278 27.6
2009-08-03 07:50:28 51°18.309 2°35.004 281.8 11.9 278 27.7
2009-08-03 07:50:34 51°18.311 2°34.973 281.8 11.9 278 27.7
2009-08-03 07:50:38 51°18.313 2°34.952 281.7 11.9 278 27.3
2009-08-03 07:50:43 51°18.316 2°34.926 281.7 11.9 278 27.3
2009-08-03 07:50:48 51°18.318 2°34.9 281.7 11.9 278 27.1
2009-08-03 07:50:54 51°18.321 2°34.869 281.6 11.9 278 27.1
2009-08-03 07:50:59 51°18.323 2°34.843 281.4 11.8 278 26.8
2009-08-03 07:51:03 51°18.325 2°34.822 281.6 11.9 278 26.6
2009-08-03 07:51:08 51°18.327 2°34.796 281.7 11.9 278 26.9
2009-08-03 07:51:13 51°18.329 2°34.77 281.7 11.8 278 27.1
2009-08-03 07:51:19 51°18.332 2°34.739 281.6 11.8 278 26.2
2009-08-03 07:51:23 51°18.334 2°34.719 281.7 11.8 278 25.5
2009-08-03 07:51:28 51°18.336 2°34.693 281.7 11.8 278 25.4
2009-08-03 07:51:33 51°18.338 2°34.667 281.5 11.9 278 25.6
2009-08-03 07:51:38 51°18.34 2°34.641 281.3 11.8 277 25.9
2009-08-03 07:51:43 51°18.342 2°34.615 280.5 11.8 276 26.5
2009-08-03 07:51:48 51°18.344 2°34.589 280.2 11.8 277 27
2009-08-03 07:51:53 51°18.346 2°34.563 280.1 11.8 276 27.3
2009-08-03 07:51:58 51°18.348 2°34.537 279.9 11.8 277 27.6
2009-08-03 07:52:03 51°18.349 2°34.511 279.5 11.8 275 27.2
2009-08-03 07:52:07 51°18.351 2°34.49 279.3 11.8 276 27.2
2009-08-03 07:52:13 51°18.353 2°34.458 280.2 11.8 277 26.2
2009-08-03 07:52:18 51°18.355 2°34.433 280.5 11.8 276 22.8
2009-08-03 07:52:23 51°18.357 2°34.407 280.4 11.8 277 25.2
2009-08-03 07:52:28 51°18.359 2°34.381 281.1 11.8 278 26.7
2009-08-03 07:52:34 51°18.362 2°34.35 281.2 11.8 278 26.5
2009-08-03 07:52:38 51°18.363 2°34.329 281.4 11.8 278 25.8
2009-08-03 07:52:43 51°18.366 2°34.303 281.8 11.8 278 25.3
2009-08-03 07:52:48 51°18.368 2°34.278 281.6 11.8 277 25.8
2009-08-03 07:52:54 51°18.37 2°34.247 281 11.8 278 25.9
2009-08-03 07:52:58 51°18.372 2°34.226 280.8 11.8 277 25.7
2009-08-03 07:53:03 51°18.374 2°34.2 281 11.8 278 25.4
2009-08-03 07:53:08 51°18.376 2°34.174 280.9 11.8 277 24.2
2009-08-03 07:53:13 51°18.378 2°34.148 280.9 11.8 278 22.9
2009-08-03 07:53:18 51°18.381 2°34.122 281.6 11.8 278 20.6
2009-08-03 07:53:23 51°18.383 2°34.097 281.4 11.8 277 21.6
2009-08-03 07:53:28 51°18.385 2°34.071 280.6 11.8 277 21.7
2009-08-03 07:53:33 51°18.387 2°34.045 280.5 11.8 277 21.9
2009-08-03 07:53:38 51°18.388 2°34.019 280.5 11.8 277 22.5
2009-08-03 07:53:43 51°18.39 2°33.993 280.9 11.8 278 23
2009-08-03 07:53:48 51°18.393 2°33.968 281.3 11.8 278 23
2009-08-03 07:53:53 51°18.395 2°33.942 281.3 11.7 278 22.5
2009-08-03 07:53:59 51°18.398 2°33.911 281.8 11.8 278 20.6
2009-08-03 07:54:03 51°18.4 2°33.89 281.9 11.8 278 20.1
2009-08-03 07:54:08 51°18.402 2°33.864 281.8 11.8 278 20.2
2009-08-03 07:54:14 51°18.405 2°33.833 282 11.7 278 20.2
2009-08-03 07:54:18 51°18.407 2°33.812 282 11.8 278 20.7
2009-08-03 07:54:23 51°18.409 2°33.785 281.5 11.8 277 20.7
2009-08-03 07:54:28 51°18.412 2°33.759 281.2 11.7 278 20.5
2009-08-03 07:54:33 51°18.414 2°33.734 281.7 11.7 278 20.2
2009-08-03 07:54:38 51°18.416 2°33.708 281.7 11.7 278 19.8
2009-08-03 07:54:43 51°18.419 2°33.682 281.7 11.7 278 19.2
2009-08-03 07:54:48 51°18.421 2°33.657 281.7 11.7 278 18.5
2009-08-03 07:54:53 51°18.423 2°33.631 281.7 11.7 278 17.5
2009-08-03 07:54:58 51°18.425 2°33.606 281.8 11.7 278 17.1
2009-08-03 07:55:03 51°18.428 2°33.58 281.9 11.7 278 17
2009-08-03 07:55:08 51°18.43 2°33.554 282.5 11.7 278 17.6
2009-08-03 07:55:13 51°18.432 2°33.529 281.8 11.7 278 17.5
2009-08-03 07:55:18 51°18.434 2°33.503 281.8 11.7 278 17.6
2009-08-03 07:55:23 51°18.436 2°33.477 281.8 11.7 278 17.9
2009-08-03 07:55:28 51°18.439 2°33.452 281.6 11.7 278 17.9
2009-08-03 07:55:33 51°18.441 2°33.426 281.5 11.7 278 18.1
2009-08-03 07:55:38 51°18.443 2°33.401 281.5 11.7 278 18.7
2009-08-03 07:55:43 51°18.445 2°33.375 281.4 11.7 278 18.9
2009-08-03 07:55:48 51°18.447 2°33.349 281.6 11.7 278 19.1
2009-08-03 07:55:53 51°18.449 2°33.324 281.5 11.7 278 19.7
2009-08-03 07:55:58 51°18.452 2°33.298 281.3 11.7 277 20
2009-08-03 07:56:03 51°18.453 2°33.272 280.6 11.7 277 20.7
2009-08-03 07:56:07 51°18.455 2°33.252 280.4 11.7 277 21
2009-08-03 07:56:13 51°18.457 2°33.221 280.3 11.7 276 21.3
2009-08-03 07:56:18 51°18.459 2°33.195 279.9 11.7 277 22.2
2009-08-03 07:56:23 51°18.461 2°33.169 280.7 11.7 278 22.1
2009-08-03 07:56:28 51°18.463 2°33.144 281.1 11.7 278 23.2
2009-08-03 07:56:33 51°18.466 2°33.118 281.4 11.7 278 23.2
2009-08-03 07:56:38 51°18.468 2°33.093 281.3 11.6 279 23.5
2009-08-03 07:56:43 51°18.47 2°33.067 281.5 11.7 277 23.4
2009-08-03 07:56:48 51°18.473 2°33.042 281.3 11.6 279 23.8
2009-08-03 07:56:54 51°18.475 2°33.011 281.7 11.6 278 23.9
2009-08-03 07:56:58 51°18.477 2°32.991 281.7 11.6 278 23.8
2009-08-03 07:57:03 51°18.48 2°32.965 281.9 11.7 279 25.1
2009-08-03 07:57:08 51°18.482 2°32.94 282.3 11.6 278 24.5
2009-08-03 07:57:13 51°18.484 2°32.915 281.6 11.6 278 25.2
2009-08-03 07:57:18 51°18.486 2°32.889 281.6 11.6 278 25.5
2009-08-03 07:57:23 51°18.489 2°32.863 281.5 11.6 278 25.3
2009-08-03 07:57:28 51°18.491 2°32.838 281 11.6 277 25.8
2009-08-03 07:57:34 51°18.493 2°32.807 280.9 11.7 277 26.1
2009-08-03 07:57:38 51°18.495 2°32.787 280.6 11.6 277 24.7
2009-08-03 07:57:43 51°18.497 2°32.761 281 11.7 277 24.5
2009-08-03 07:57:48 51°18.499 2°32.735 280.6 11.6 277 24.5
2009-08-03 07:57:54 51°18.501 2°32.705 280.9 11.6 277 25.3
2009-08-03 07:57:58 51°18.502 2°32.684 281.1 11.6 276 25.7
2009-08-03 07:58:03 51°18.504 2°32.658 280.4 11.7 276 25.9
2009-08-03 07:58:08 51°18.506 2°32.633 280.2 11.7 277 25.5
2009-08-03 07:58:13 51°18.508 2°32.607 281 11.6 277 25.7
2009-08-03 07:58:18 51°18.51 2°32.582 281.3 11.7 276 26.4
2009-08-03 07:58:23 51°18.512 2°32.556 281.3 11.7 278 26.8
2009-08-03 07:58:27 51°18.514 2°32.535 281.6 11.7 277 27.1
2009-08-03 07:58:33 51°18.516 2°32.505 281.5 11.7 277 27.7
2009-08-03 07:58:38 51°18.518 2°32.479 281.4 11.7 277 27.8
2009-08-03 07:58:43 51°18.52 2°32.453 281.5 11.7 278 28.4
2009-08-03 07:58:48 51°18.522 2°32.427 281.3 11.7 276 28.4
2009-08-03 07:58:53 51°18.524 2°32.402 281 11.7 277 28.6
2009-08-03 07:58:58 51°18.525 2°32.376 281 11.7 276 28.7
2009-08-03 07:59:03 51°18.527 2°32.35 280.9 11.7 276 28.6
2009-08-03 07:59:08 51°18.529 2°32.324 280.8 11.7 276 28.8
2009-08-03 07:59:13 51°18.531 2°32.298 280.8 11.7 276 28.9
2009-08-03 07:59:18 51°18.533 2°32.273 281.1 11.7 276 28.9
2009-08-03 07:59:23 51°18.534 2°32.247 281.2 11.7 276 28.9
2009-08-03 07:59:28 51°18.536 2°32.221 280.8 11.8 276 29.3
2009-08-03 07:59:33 51°18.538 2°32.195 280.8 11.7 276 29.4
2009-08-03 07:59:38 51°18.539 2°32.169 280.3 11.8 276 29.5
2009-08-03 07:59:43 51°18.541 2°32.144 280.8 11.7 277 29.6
2009-08-03 07:59:48 51°18.543 2°32.118 281.9 11.7 278 29.9
2009-08-03 07:59:54 51°18.546 2°32.087 283.3 11.7 279 29.9
2009-08-03 07:59:58 51°18.548 2°32.067 283.9 11.7 278 29.6
2009-08-03 08:00:03 51°18.552 2°32.042 285 11.7 282 29.8
2009-08-03 08:00:08 51°18.554 2°32.016 285.7 11.6 280 29.9
2009-08-03 08:00:13 51°18.557 2°31.991 286.2 11.7 281 29.9
2009-08-03 08:00:18 51°18.56 2°31.965 286.1 11.7 282 30
2009-08-03 08:00:23 51°18.564 2°31.94 286.9 11.6 283 29.8
2009-08-03 08:00:27 51°18.567 2°31.92 287.9 11.6 283 30
2009-08-03 08:00:33 51°18.571 2°31.89 288.1 11.6 284 30.1
2009-08-03 08:00:38 51°18.575 2°31.865 288.4 11.6 283 30.1
2009-08-03 08:00:43 51°18.579 2°31.84 288.6 11.7 284 30.2
2009-08-03 08:00:48 51°18.583 2°31.815 288.8 11.7 283 30.3
2009-08-03 08:00:53 51°18.586 2°31.79 288.1 11.7 283 30.3
2009-08-03 08:00:58 51°18.59 2°31.765 288.7 11.7 283 30.3